sensor_id;sensor_type;location;lat;lon;timestamp;temperature;humidity
33699;DHT22;20032;52.436;13.312;2022-09-03T00:02:18;15.20;99.90
33699;DHT22;20032;52.436;13.312;2022-09-03T00:05:02;15.20;99.90
33699;DHT22;20032;52.436;13.312;2022-09-03T00:07:46;15.20;99.90
33699;DHT22;20032;52.436;13.312;2022-09-03T00:10:23;15.20;99.90
33699;DHT22;20032;52.436;13.312;2022-09-03T00:12:53;15.20;99.90
33699;DHT22;20032;52.436;13.312;2022-09-03T00:15:22;15.10;99.90
33699;DHT22;20032;52.436;13.312;2022-09-03T00:17:51;15.10;99.90
33699;DHT22;20032;52.436;13.312;2022-09-03T00:20:46;15.10;99.90
33699;DHT22;20032;52.436;13.312;2022-09-03T00:23:21;15.00;99.90
33699;DHT22;20032;52.436;13.312;2022-09-03T00:25:51;15.10;99.90
33699;DHT22;20032;52.436;13.312;2022-09-03T00:28:22;15.10;99.90
33699;DHT22;20032;52.436;13.312;2022-09-03T00:30:53;15.00;99.90
33699;DHT22;20032;52.436;13.312;2022-09-03T00:33:23;15.00;99.90
33699;DHT22;20032;52.436;13.312;2022-09-03T00:36:14;15.00;99.90
33699;DHT22;20032;52.436;13.312;2022-09-03T00:38:40;15.00;99.90
33699;DHT22;20032;52.436;13.312;2022-09-03T00:41:16;14.90;99.90
33699;DHT22;20032;52.436;13.312;2022-09-03T00:46:59;14.80;99.90
33699;DHT22;20032;52.436;13.312;2022-09-03T00:49:38;14.80;99.90
33699;DHT22;20032;52.436;13.312;2022-09-03T00:52:19;14.80;99.90
33699;DHT22;20032;52.436;13.312;2022-09-03T00:55:12;14.70;99.90
33699;DHT22;20032;52.436;13.312;2022-09-03T01:00:17;14.80;99.90
33699;DHT22;20032;52.436;13.312;2022-09-03T01:02:48;14.80;99.90
33699;DHT22;20032;52.436;13.312;2022-09-03T01:06:10;14.70;99.90
33699;DHT22;20032;52.436;13.312;2022-09-03T01:08:54;14.70;99.90
33699;DHT22;20032;52.436;13.312;2022-09-03T01:18:08;14.70;99.90
33699;DHT22;20032;52.436;13.312;2022-09-03T01:20:11;14.60;99.90
33699;DHT22;20032;52.436;13.312;2022-09-03T01:23:35;14.60;99.90
33699;DHT22;20032;52.436;13.312;2022-09-03T01:25:53;14.50;99.90
33699;DHT22;20032;52.436;13.312;2022-09-03T01:28:32;14.60;99.90
33699;DHT22;20032;52.436;13.312;2022-09-03T01:31:13;14.60;99.90
33699;DHT22;20032;52.436;13.312;2022-09-03T01:33:53;14.50;99.90
33699;DHT22;20032;52.436;13.312;2022-09-03T01:36:30;14.50;99.90
33699;DHT22;20032;52.436;13.312;2022-09-03T01:39:01;14.50;99.90
33699;DHT22;20032;52.436;13.312;2022-09-03T01:42:00;14.40;99.90
33699;DHT22;20032;52.436;13.312;2022-09-03T01:44:54;14.40;99.90
33699;DHT22;20032;52.436;13.312;2022-09-03T01:48:30;14.50;99.90
33699;DHT22;20032;52.436;13.312;2022-09-03T01:50:25;14.40;99.90
33699;DHT22;20032;52.436;13.312;2022-09-03T01:53:12;14.40;99.90
33699;DHT22;20032;52.436;13.312;2022-09-03T01:57:06;14.30;99.90
33699;DHT22;20032;52.436;13.312;2022-09-03T01:58:50;14.20;99.90
33699;DHT22;20032;52.436;13.312;2022-09-03T02:01:32;14.30;99.90
33699;DHT22;20032;52.436;13.312;2022-09-03T02:03:59;14.30;99.90
33699;DHT22;20032;52.436;13.312;2022-09-03T02:06:26;14.30;99.90
33699;DHT22;20032;52.436;13.312;2022-09-03T02:08:52;14.30;99.90
33699;DHT22;20032;52.436;13.312;2022-09-03T02:11:18;14.20;99.90
33699;DHT22;20032;52.436;13.312;2022-09-03T02:13:47;14.20;99.90
33699;DHT22;20032;52.436;13.312;2022-09-03T02:16:16;14.20;99.90
33699;DHT22;20032;52.436;13.312;2022-09-03T02:18:49;14.20;99.90
33699;DHT22;20032;52.436;13.312;2022-09-03T02:21:17;14.20;99.90
33699;DHT22;20032;52.436;13.312;2022-09-03T02:23:45;14.20;99.90
33699;DHT22;20032;52.436;13.312;2022-09-03T02:26:12;14.20;99.90
33699;DHT22;20032;52.436;13.312;2022-09-03T02:28:40;14.20;99.90
33699;DHT22;20032;52.436;13.312;2022-09-03T02:31:06;14.20;99.90
33699;DHT22;20032;52.436;13.312;2022-09-03T02:33:36;14.10;99.90
33699;DHT22;20032;52.436;13.312;2022-09-03T02:36:04;14.10;99.90
33699;DHT22;20032;52.436;13.312;2022-09-03T02:38:30;14.10;99.90
33699;DHT22;20032;52.436;13.312;2022-09-03T02:40:55;14.00;99.90
33699;DHT22;20032;52.436;13.312;2022-09-03T02:43:26;14.00;99.90
33699;DHT22;20032;52.436;13.312;2022-09-03T02:46:00;13.90;99.90
33699;DHT22;20032;52.436;13.312;2022-09-03T02:48:26;13.90;99.90
33699;DHT22;20032;52.436;13.312;2022-09-03T02:50:52;13.80;99.90
33699;DHT22;20032;52.436;13.312;2022-09-03T02:53:17;13.80;99.90
33699;DHT22;20032;52.436;13.312;2022-09-03T02:55:43;13.80;99.90
33699;DHT22;20032;52.436;13.312;2022-09-03T02:58:08;13.80;99.90
33699;DHT22;20032;52.436;13.312;2022-09-03T03:00:35;13.70;99.90
33699;DHT22;20032;52.436;13.312;2022-09-03T03:03:02;13.70;99.90
33699;DHT22;20032;52.436;13.312;2022-09-03T03:05:43;13.70;99.90
33699;DHT22;20032;52.436;13.312;2022-09-03T03:08:09;13.70;99.90
33699;DHT22;20032;52.436;13.312;2022-09-03T03:10:40;13.70;99.90
33699;DHT22;20032;52.436;13.312;2022-09-03T03:13:05;13.70;99.90
33699;DHT22;20032;52.436;13.312;2022-09-03T03:15:31;13.60;99.90
33699;DHT22;20032;52.436;13.312;2022-09-03T03:17:57;13.60;99.90
33699;DHT22;20032;52.436;13.312;2022-09-03T03:20:22;13.50;99.90
33699;DHT22;20032;52.436;13.312;2022-09-03T03:22:48;13.60;99.90
33699;DHT22;20032;52.436;13.312;2022-09-03T03:25:14;13.60;99.90
33699;DHT22;20032;52.436;13.312;2022-09-03T03:27:39;13.50;99.90
33699;DHT22;20032;52.436;13.312;2022-09-03T03:30:07;13.40;99.90
33699;DHT22;20032;52.436;13.312;2022-09-03T03:32:35;13.40;99.90
33699;DHT22;20032;52.436;13.312;2022-09-03T03:35:02;13.30;99.90
33699;DHT22;20032;52.436;13.312;2022-09-03T03:37:27;13.30;99.90
33699;DHT22;20032;52.436;13.312;2022-09-03T03:39:53;13.30;99.90
33699;DHT22;20032;52.436;13.312;2022-09-03T03:42:18;13.40;99.90
33699;DHT22;20032;52.436;13.312;2022-09-03T03:44:44;13.30;99.90
33699;DHT22;20032;52.436;13.312;2022-09-03T03:47:09;13.30;99.90
33699;DHT22;20032;52.436;13.312;2022-09-03T03:49:35;13.30;99.90
33699;DHT22;20032;52.436;13.312;2022-09-03T03:52:00;13.40;99.90
33699;DHT22;20032;52.436;13.312;2022-09-03T03:54:27;13.30;99.90
33699;DHT22;20032;52.436;13.312;2022-09-03T03:56:52;13.30;99.90
33699;DHT22;20032;52.436;13.312;2022-09-03T03:59:18;13.30;99.90
33699;DHT22;20032;52.436;13.312;2022-09-03T04:01:43;13.30;99.90
33699;DHT22;20032;52.436;13.312;2022-09-03T04:04:09;13.30;99.90
33699;DHT22;20032;52.436;13.312;2022-09-03T04:06:34;13.30;99.90
33699;DHT22;20032;52.436;13.312;2022-09-03T04:09:00;13.30;99.90
33699;DHT22;20032;52.436;13.312;2022-09-03T04:11:25;13.30;99.90
33699;DHT22;20032;52.436;13.312;2022-09-03T04:13:51;13.20;99.90
33699;DHT22;20032;52.436;13.312;2022-09-03T04:16:21;13.30;99.90
33699;DHT22;20032;52.436;13.312;2022-09-03T04:18:47;13.20;99.90
33699;DHT22;20032;52.436;13.312;2022-09-03T04:21:17;13.20;99.90
33699;DHT22;20032;52.436;13.312;2022-09-03T04:23:46;13.20;99.90
33699;DHT22;20032;52.436;13.312;2022-09-03T04:26:15;13.30;99.90
33699;DHT22;20032;52.436;13.312;2022-09-03T04:28:41;13.30;99.90
33699;DHT22;20032;52.436;13.312;2022-09-03T04:31:08;13.30;99.90
33699;DHT22;20032;52.436;13.312;2022-09-03T04:33:35;13.20;99.90
33699;DHT22;20032;52.436;13.312;2022-09-03T04:36:09;13.20;99.90
33699;DHT22;20032;52.436;13.312;2022-09-03T04:38:37;13.30;99.90
33699;DHT22;20032;52.436;13.312;2022-09-03T04:41:04;13.20;99.90
33699;DHT22;20032;52.436;13.312;2022-09-03T04:43:30;13.30;99.90
33699;DHT22;20032;52.436;13.312;2022-09-03T04:45:58;13.30;99.90
33699;DHT22;20032;52.436;13.312;2022-09-03T04:48:25;13.40;99.90
33699;DHT22;20032;52.436;13.312;2022-09-03T04:50:50;13.40;99.90
33699;DHT22;20032;52.436;13.312;2022-09-03T04:53:16;13.30;99.90
33699;DHT22;20032;52.436;13.312;2022-09-03T04:55:42;13.40;99.90
33699;DHT22;20032;52.436;13.312;2022-09-03T04:58:07;13.30;99.90
33699;DHT22;20032;52.436;13.312;2022-09-03T05:00:34;13.30;99.90
33699;DHT22;20032;52.436;13.312;2022-09-03T05:03:00;13.40;99.90
33699;DHT22;20032;52.436;13.312;2022-09-03T05:05:25;13.50;99.90
33699;DHT22;20032;52.436;13.312;2022-09-03T05:07:51;13.50;99.90
33699;DHT22;20032;52.436;13.312;2022-09-03T05:10:17;13.50;99.90
33699;DHT22;20032;52.436;13.312;2022-09-03T05:12:47;13.50;99.90
33699;DHT22;20032;52.436;13.312;2022-09-03T05:15:14;13.60;99.90
33699;DHT22;20032;52.436;13.312;2022-09-03T05:17:39;13.60;99.90
33699;DHT22;20032;52.436;13.312;2022-09-03T05:20:05;13.60;99.90
33699;DHT22;20032;52.436;13.312;2022-09-03T05:22:33;13.60;99.90
33699;DHT22;20032;52.436;13.312;2022-09-03T05:24:59;13.60;99.90
33699;DHT22;20032;52.436;13.312;2022-09-03T05:27:24;13.60;99.90
33699;DHT22;20032;52.436;13.312;2022-09-03T05:29:50;13.60;99.90
33699;DHT22;20032;52.436;13.312;2022-09-03T05:32:15;13.60;99.90
33699;DHT22;20032;52.436;13.312;2022-09-03T05:34:42;13.70;99.90
33699;DHT22;20032;52.436;13.312;2022-09-03T05:37:08;13.70;99.90
33699;DHT22;20032;52.436;13.312;2022-09-03T05:39:33;13.70;99.90
33699;DHT22;20032;52.436;13.312;2022-09-03T05:41:59;13.70;99.90
33699;DHT22;20032;52.436;13.312;2022-09-03T05:44:24;13.70;99.90
33699;DHT22;20032;52.436;13.312;2022-09-03T05:46:50;13.80;99.90
33699;DHT22;20032;52.436;13.312;2022-09-03T05:49:16;13.90;99.90
33699;DHT22;20032;52.436;13.312;2022-09-03T05:51:42;13.90;99.90
33699;DHT22;20032;52.436;13.312;2022-09-03T05:54:08;14.00;99.90
33699;DHT22;20032;52.436;13.312;2022-09-03T05:56:35;14.00;99.90
33699;DHT22;20032;52.436;13.312;2022-09-03T05:59:03;14.00;99.90
33699;DHT22;20032;52.436;13.312;2022-09-03T06:01:34;14.00;99.90
33699;DHT22;20032;52.436;13.312;2022-09-03T06:04:03;14.10;99.90
33699;DHT22;20032;52.436;13.312;2022-09-03T06:06:31;14.10;99.90
33699;DHT22;20032;52.436;13.312;2022-09-03T06:08:59;14.20;99.90
33699;DHT22;20032;52.436;13.312;2022-09-03T06:11:26;14.20;99.90
33699;DHT22;20032;52.436;13.312;2022-09-03T06:13:56;14.20;99.90
33699;DHT22;20032;52.436;13.312;2022-09-03T06:16:21;14.30;99.90
33699;DHT22;20032;52.436;13.312;2022-09-03T06:18:47;14.40;99.90
33699;DHT22;20032;52.436;13.312;2022-09-03T06:21:13;14.40;99.90
33699;DHT22;20032;52.436;13.312;2022-09-03T06:23:40;14.40;99.90
33699;DHT22;20032;52.436;13.312;2022-09-03T06:26:10;14.50;99.90
33699;DHT22;20032;52.436;13.312;2022-09-03T06:28:38;14.50;99.90
33699;DHT22;20032;52.436;13.312;2022-09-03T06:31:05;14.50;99.90
33699;DHT22;20032;52.436;13.312;2022-09-03T06:33:33;14.60;99.90
33699;DHT22;20032;52.436;13.312;2022-09-03T06:36:00;14.70;99.90
33699;DHT22;20032;52.436;13.312;2022-09-03T06:38:28;14.70;99.90
33699;DHT22;20032;52.436;13.312;2022-09-03T06:40:57;14.70;99.90
33699;DHT22;20032;52.436;13.312;2022-09-03T06:43:27;14.70;99.90
33699;DHT22;20032;52.436;13.312;2022-09-03T06:45:57;14.70;99.90
33699;DHT22;20032;52.436;13.312;2022-09-03T06:48:23;14.70;99.90
33699;DHT22;20032;52.436;13.312;2022-09-03T06:50:57;14.70;99.90
33699;DHT22;20032;52.436;13.312;2022-09-03T06:53:24;14.80;99.90
33699;DHT22;20032;52.436;13.312;2022-09-03T06:56:00;14.90;99.90
33699;DHT22;20032;52.436;13.312;2022-09-03T06:58:30;14.90;99.90
33699;DHT22;20032;52.436;13.312;2022-09-03T07:01:04;15.00;99.90
33699;DHT22;20032;52.436;13.312;2022-09-03T07:03:32;15.00;99.90
33699;DHT22;20032;52.436;13.312;2022-09-03T07:06:07;15.00;99.90
33699;DHT22;20032;52.436;13.312;2022-09-03T07:08:33;15.10;99.90
33699;DHT22;20032;52.436;13.312;2022-09-03T07:11:00;15.10;99.90
33699;DHT22;20032;52.436;13.312;2022-09-03T07:13:29;15.10;99.90
33699;DHT22;20032;52.436;13.312;2022-09-03T07:16:00;15.10;99.90
33699;DHT22;20032;52.436;13.312;2022-09-03T07:18:25;15.10;99.90
33699;DHT22;20032;52.436;13.312;2022-09-03T07:20:51;15.10;99.90
33699;DHT22;20032;52.436;13.312;2022-09-03T07:23:16;15.30;99.90
33699;DHT22;20032;52.436;13.312;2022-09-03T07:25:42;15.30;99.90
33699;DHT22;20032;52.436;13.312;2022-09-03T07:28:08;15.40;99.90
33699;DHT22;20032;52.436;13.312;2022-09-03T07:30:33;15.40;99.90
33699;DHT22;20032;52.436;13.312;2022-09-03T07:32:59;15.50;99.90
33699;DHT22;20032;52.436;13.312;2022-09-03T07:35:28;15.60;99.90
33699;DHT22;20032;52.436;13.312;2022-09-03T07:37:54;15.60;99.90
33699;DHT22;20032;52.436;13.312;2022-09-03T07:40:19;15.60;99.90
33699;DHT22;20032;52.436;13.312;2022-09-03T07:42:45;15.70;99.90
33699;DHT22;20032;52.436;13.312;2022-09-03T07:45:12;15.80;99.90
33699;DHT22;20032;52.436;13.312;2022-09-03T07:47:45;15.90;99.90
33699;DHT22;20032;52.436;13.312;2022-09-03T07:50:11;15.90;99.90
33699;DHT22;20032;52.436;13.312;2022-09-03T07:52:37;15.90;99.90
33699;DHT22;20032;52.436;13.312;2022-09-03T07:55:03;16.10;99.90
33699;DHT22;20032;52.436;13.312;2022-09-03T07:57:29;16.20;99.90
33699;DHT22;20032;52.436;13.312;2022-09-03T07:59:54;16.20;99.90
33699;DHT22;20032;52.436;13.312;2022-09-03T08:02:20;16.20;99.90
33699;DHT22;20032;52.436;13.312;2022-09-03T08:04:45;16.20;99.90
33699;DHT22;20032;52.436;13.312;2022-09-03T08:07:11;16.40;99.90
33699;DHT22;20032;52.436;13.312;2022-09-03T08:09:36;16.50;99.90
33699;DHT22;20032;52.436;13.312;2022-09-03T08:12:02;16.60;99.90
33699;DHT22;20032;52.436;13.312;2022-09-03T08:14:28;16.70;99.90
33699;DHT22;20032;52.436;13.312;2022-09-03T08:16:56;16.80;99.90
33699;DHT22;20032;52.436;13.312;2022-09-03T08:19:24;16.90;99.90
33699;DHT22;20032;52.436;13.312;2022-09-03T08:21:49;17.00;99.90
33699;DHT22;20032;52.436;13.312;2022-09-03T08:24:16;17.10;99.90
33699;DHT22;20032;52.436;13.312;2022-09-03T08:26:45;17.20;99.90
33699;DHT22;20032;52.436;13.312;2022-09-03T08:29:10;17.20;99.90
33699;DHT22;20032;52.436;13.312;2022-09-03T08:31:36;17.30;99.90
33699;DHT22;20032;52.436;13.312;2022-09-03T08:34:05;17.30;99.90
33699;DHT22;20032;52.436;13.312;2022-09-03T08:36:32;17.50;99.90
33699;DHT22;20032;52.436;13.312;2022-09-03T08:39:00;17.60;99.90
33699;DHT22;20032;52.436;13.312;2022-09-03T08:44:18;17.90;99.90
33699;DHT22;20032;52.436;13.312;2022-09-03T08:47:05;18.00;99.90
33699;DHT22;20032;52.436;13.312;2022-09-03T08:50:35;18.30;99.90
33699;DHT22;20032;52.436;13.312;2022-09-03T08:54:56;18.50;99.90
33699;DHT22;20032;52.436;13.312;2022-09-03T08:57:24;18.50;99.90
33699;DHT22;20032;52.436;13.312;2022-09-03T08:59:54;18.60;99.90
33699;DHT22;20032;52.436;13.312;2022-09-03T09:02:25;18.60;99.90
33699;DHT22;20032;52.436;13.312;2022-09-03T09:05:16;18.70;99.90
33699;DHT22;20032;52.436;13.312;2022-09-03T09:07:50;18.80;99.90
33699;DHT22;20032;52.436;13.312;2022-09-03T09:10:29;19.00;99.90
33699;DHT22;20032;52.436;13.312;2022-09-03T09:13:09;19.20;99.70
33699;DHT22;20032;52.436;13.312;2022-09-03T09:15:53;19.30;99.90
33699;DHT22;20032;52.436;13.312;2022-09-03T09:18:36;19.50;99.90
33699;DHT22;20032;52.436;13.312;2022-09-03T09:21:26;19.60;99.90
33699;DHT22;20032;52.436;13.312;2022-09-03T09:23:58;19.70;99.90
33699;DHT22;20032;52.436;13.312;2022-09-03T09:26:24;19.90;99.90
33699;DHT22;20032;52.436;13.312;2022-09-03T09:29:08;20.00;99.40
33699;DHT22;20032;52.436;13.312;2022-09-03T09:31:36;20.10;99.50
33699;DHT22;20032;52.436;13.312;2022-09-03T09:34:04;20.20;98.40
33699;DHT22;20032;52.436;13.312;2022-09-03T09:36:34;20.40;97.80
33699;DHT22;20032;52.436;13.312;2022-09-03T09:39:10;20.60;97.60
33699;DHT22;20032;52.436;13.312;2022-09-03T09:41:36;20.60;98.10
33699;DHT22;20032;52.436;13.312;2022-09-03T09:44:02;20.90;97.60
33699;DHT22;20032;52.436;13.312;2022-09-03T09:46:35;21.00;96.30
33699;DHT22;20032;52.436;13.312;2022-09-03T09:49:01;21.10;95.70
33699;DHT22;20032;52.436;13.312;2022-09-03T09:51:29;21.20;95.60
33699;DHT22;20032;52.436;13.312;2022-09-03T09:56:26;21.60;95.30
33699;DHT22;20032;52.436;13.312;2022-09-03T09:59:09;21.80;93.90
33699;DHT22;20032;52.436;13.312;2022-09-03T10:01:38;21.90;93.30
33699;DHT22;20032;52.436;13.312;2022-09-03T10:04:15;22.00;92.40
33699;DHT22;20032;52.436;13.312;2022-09-03T10:06:53;22.00;92.60
33699;DHT22;20032;52.436;13.312;2022-09-03T10:09:21;22.10;91.60
33699;DHT22;20032;52.436;13.312;2022-09-03T10:11:51;22.20;91.50
33699;DHT22;20032;52.436;13.312;2022-09-03T10:14:22;22.40;91.20
33699;DHT22;20032;52.436;13.312;2022-09-03T10:16:55;22.50;91.00
33699;DHT22;20032;52.436;13.312;2022-09-03T10:19:29;22.50;91.80
33699;DHT22;20032;52.436;13.312;2022-09-03T10:22:06;22.40;92.00
33699;DHT22;20032;52.436;13.312;2022-09-03T10:24:46;22.20;91.80
33699;DHT22;20032;52.436;13.312;2022-09-03T10:27:13;22.10;91.90
33699;DHT22;20032;52.436;13.312;2022-09-03T10:29:41;22.20;91.40
33699;DHT22;20032;52.436;13.312;2022-09-03T10:32:19;22.40;91.20
33699;DHT22;20032;52.436;13.312;2022-09-03T10:37:50;22.10;91.80
33699;DHT22;20032;52.436;13.312;2022-09-03T10:40:34;22.20;91.70
33699;DHT22;20032;52.436;13.312;2022-09-03T10:43:40;22.10;92.00
33699;DHT22;20032;52.436;13.312;2022-09-03T10:46:14;21.90;91.90
33699;DHT22;20032;52.436;13.312;2022-09-03T10:49:21;21.60;92.70
33699;DHT22;20032;52.436;13.312;2022-09-03T10:51:35;21.40;92.80
33699;DHT22;20032;52.436;13.312;2022-09-03T10:59:52;21.40;92.10
33699;DHT22;20032;52.436;13.312;2022-09-03T11:03:06;21.50;91.60
33699;DHT22;20032;52.436;13.312;2022-09-03T11:05:38;21.50;91.40
33699;DHT22;20032;52.436;13.312;2022-09-03T11:08:21;21.50;91.50
33699;DHT22;20032;52.436;13.312;2022-09-03T11:10:51;21.90;91.60
33699;DHT22;20032;52.436;13.312;2022-09-03T11:13:24;22.60;90.40
33699;DHT22;20032;52.436;13.312;2022-09-03T11:15:55;23.10;87.40
33699;DHT22;20032;52.436;13.312;2022-09-03T11:18:28;23.50;87.70
33699;DHT22;20032;52.436;13.312;2022-09-03T11:20:58;23.90;85.60
33699;DHT22;20032;52.436;13.312;2022-09-03T11:23:27;24.20;84.30
33699;DHT22;20032;52.436;13.312;2022-09-03T11:25:57;24.60;84.90
33699;DHT22;20032;52.436;13.312;2022-09-03T11:29:01;24.50;83.20
33699;DHT22;20032;52.436;13.312;2022-09-03T11:34:00;24.30;82.70
33699;DHT22;20032;52.436;13.312;2022-09-03T11:36:31;24.10;83.10
33699;DHT22;20032;52.436;13.312;2022-09-03T11:38:57;24.30;82.00
33699;DHT22;20032;52.436;13.312;2022-09-03T11:41:27;24.10;81.40
33699;DHT22;20032;52.436;13.312;2022-09-03T11:43:54;23.60;82.50
33699;DHT22;20032;52.436;13.312;2022-09-03T11:48:51;23.10;85.90
33699;DHT22;20032;52.436;13.312;2022-09-03T11:54:00;22.90;82.20
33699;DHT22;20032;52.436;13.312;2022-09-03T11:56:27;22.80;83.30
33699;DHT22;20032;52.436;13.312;2022-09-03T11:59:21;22.90;83.20
33699;DHT22;20032;52.436;13.312;2022-09-03T12:01:56;23.30;81.20
33699;DHT22;20032;52.436;13.312;2022-09-03T12:04:33;23.00;81.00
33699;DHT22;20032;52.436;13.312;2022-09-03T12:07:13;22.90;83.00
33699;DHT22;20032;52.436;13.312;2022-09-03T12:13:58;23.10;82.40
33699;DHT22;20032;52.436;13.312;2022-09-03T12:18:15;22.70;83.50
33699;DHT22;20032;52.436;13.312;2022-09-03T12:20:44;22.80;83.90
33699;DHT22;20032;52.436;13.312;2022-09-03T12:23:25;23.30;82.60
33699;DHT22;20032;52.436;13.312;2022-09-03T12:25:51;24.20;80.30
33699;DHT22;20032;52.436;13.312;2022-09-03T12:28:21;25.10;79.40
33699;DHT22;20032;52.436;13.312;2022-09-03T12:30:48;25.60;75.50
33699;DHT22;20032;52.436;13.312;2022-09-03T12:33:18;24.80;77.00
33699;DHT22;20032;52.436;13.312;2022-09-03T12:35:54;24.90;77.50
33699;DHT22;20032;52.436;13.312;2022-09-03T12:38:24;25.40;76.80
33699;DHT22;20032;52.436;13.312;2022-09-03T12:40:50;25.00;75.50
33699;DHT22;20032;52.436;13.312;2022-09-03T12:43:17;24.60;76.90
33699;DHT22;20032;52.436;13.312;2022-09-03T12:45:45;24.20;81.10
33699;DHT22;20032;52.436;13.312;2022-09-03T12:48:14;24.10;79.00
33699;DHT22;20032;52.436;13.312;2022-09-03T12:50:41;24.30;78.40
33699;DHT22;20032;52.436;13.312;2022-09-03T12:53:08;24.80;76.20
33699;DHT22;20032;52.436;13.312;2022-09-03T12:55:37;24.70;76.70
33699;DHT22;20032;52.436;13.312;2022-09-03T12:58:24;24.40;78.30
33699;DHT22;20032;52.436;13.312;2022-09-03T13:01:04;24.10;77.70
33699;DHT22;20032;52.436;13.312;2022-09-03T13:06:10;23.60;78.30
33699;DHT22;20032;52.436;13.312;2022-09-03T13:08:44;24.20;77.70
33699;DHT22;20032;52.436;13.312;2022-09-03T13:11:15;25.00;76.40
33699;DHT22;20032;52.436;13.312;2022-09-03T13:13:52;25.20;75.00
33699;DHT22;20032;52.436;13.312;2022-09-03T13:16:28;25.30;75.00
33699;DHT22;20032;52.436;13.312;2022-09-03T13:20:26;24.80;76.40
33699;DHT22;20032;52.436;13.312;2022-09-03T13:22:31;24.20;77.00
33699;DHT22;20032;52.436;13.312;2022-09-03T13:25:13;23.80;78.00
33699;DHT22;20032;52.436;13.312;2022-09-03T13:28:13;23.60;78.00
33699;DHT22;20032;52.436;13.312;2022-09-03T13:31:07;23.70;78.20
33699;DHT22;20032;52.436;13.312;2022-09-03T13:33:40;24.10;77.40
33699;DHT22;20032;52.436;13.312;2022-09-03T13:38:54;23.50;78.70
33699;DHT22;20032;52.436;13.312;2022-09-03T13:41:31;23.30;79.20
33699;DHT22;20032;52.436;13.312;2022-09-03T13:44:05;23.10;79.00
33699;DHT22;20032;52.436;13.312;2022-09-03T13:46:54;23.10;79.70
33699;DHT22;20032;52.436;13.312;2022-09-03T13:49:33;22.90;79.90
33699;DHT22;20032;52.436;13.312;2022-09-03T13:52:26;22.90;79.70
33699;DHT22;20032;52.436;13.312;2022-09-03T13:54:59;22.90;81.60
33699;DHT22;20032;52.436;13.312;2022-09-03T13:57:33;22.90;81.40
33699;DHT22;20032;52.436;13.312;2022-09-03T14:00:07;22.90;79.20
33699;DHT22;20032;52.436;13.312;2022-09-03T14:02:49;22.90;80.10
33699;DHT22;20032;52.436;13.312;2022-09-03T14:05:22;22.80;79.40
33699;DHT22;20032;52.436;13.312;2022-09-03T14:10:27;22.70;82.00
33699;DHT22;20032;52.436;13.312;2022-09-03T14:13:18;22.60;80.10
33699;DHT22;20032;52.436;13.312;2022-09-03T14:16:53;22.60;80.70
33699;DHT22;20032;52.436;13.312;2022-09-03T14:19:13;22.60;80.90
33699;DHT22;20032;52.436;13.312;2022-09-03T14:21:29;22.60;80.60
33699;DHT22;20032;52.436;13.312;2022-09-03T14:24:09;22.70;80.90
33699;DHT22;20032;52.436;13.312;2022-09-03T14:26:37;22.60;81.10
33699;DHT22;20032;52.436;13.312;2022-09-03T14:29:13;22.50;81.60
33699;DHT22;20032;52.436;13.312;2022-09-03T14:32:06;22.30;81.20
33699;DHT22;20032;52.436;13.312;2022-09-03T14:35:10;22.30;81.40
33699;DHT22;20032;52.436;13.312;2022-09-03T14:37:39;22.30;81.70
33699;DHT22;20032;52.436;13.312;2022-09-03T14:40:20;22.40;81.70
33699;DHT22;20032;52.436;13.312;2022-09-03T14:43:01;22.50;81.30
33699;DHT22;20032;52.436;13.312;2022-09-03T14:45:55;22.70;81.60
33699;DHT22;20032;52.436;13.312;2022-09-03T14:48:35;22.80;80.00
33699;DHT22;20032;52.436;13.312;2022-09-03T14:54:19;23.10;80.70
33699;DHT22;20032;52.436;13.312;2022-09-03T14:57:16;22.90;80.60
33699;DHT22;20032;52.436;13.312;2022-09-03T15:02:55;22.90;80.20
33699;DHT22;20032;52.436;13.312;2022-09-03T15:08:37;22.80;80.00
33699;DHT22;20032;52.436;13.312;2022-09-03T15:11:17;22.80;79.50
33699;DHT22;20032;52.436;13.312;2022-09-03T15:13:48;22.80;79.80
33699;DHT22;20032;52.436;13.312;2022-09-03T15:16:27;22.90;79.20
33699;DHT22;20032;52.436;13.312;2022-09-03T15:19:09;23.00;79.20
33699;DHT22;20032;52.436;13.312;2022-09-03T15:24:31;22.90;78.50
33699;DHT22;20032;52.436;13.312;2022-09-03T15:27:34;23.30;79.30
33699;DHT22;20032;52.436;13.312;2022-09-03T15:32:57;23.50;77.10
33699;DHT22;20032;52.436;13.312;2022-09-03T15:35:44;23.70;77.70
33699;DHT22;20032;52.436;13.312;2022-09-03T15:38:43;23.60;77.50
33699;DHT22;20032;52.436;13.312;2022-09-03T15:41:23;23.30;77.80
33699;DHT22;20032;52.436;13.312;2022-09-03T15:43:58;23.20;79.20
33699;DHT22;20032;52.436;13.312;2022-09-03T15:50:33;23.20;79.40
33699;DHT22;20032;52.436;13.312;2022-09-03T15:52:36;23.10;78.30
33699;DHT22;20032;52.436;13.312;2022-09-03T15:55:14;23.10;78.20
33699;DHT22;20032;52.436;13.312;2022-09-03T15:57:57;23.00;79.40
33699;DHT22;20032;52.436;13.312;2022-09-03T16:03:11;22.90;81.00
33699;DHT22;20032;52.436;13.312;2022-09-03T16:05:47;22.80;80.80
33699;DHT22;20032;52.436;13.312;2022-09-03T16:09:45;22.70;80.60
33699;DHT22;20032;52.436;13.312;2022-09-03T16:11:28;22.50;79.60
33699;DHT22;20032;52.436;13.312;2022-09-03T16:14:05;22.40;81.10
33699;DHT22;20032;52.436;13.312;2022-09-03T16:17:04;22.40;83.30
33699;DHT22;20032;52.436;13.312;2022-09-03T16:22:26;22.40;83.00
33699;DHT22;20032;52.436;13.312;2022-09-03T16:25:02;22.40;81.70
33699;DHT22;20032;52.436;13.312;2022-09-03T16:27:33;22.30;82.40
33699;DHT22;20032;52.436;13.312;2022-09-03T16:30:36;22.20;82.80
33699;DHT22;20032;52.436;13.312;2022-09-03T16:33:29;22.10;83.20
33699;DHT22;20032;52.436;13.312;2022-09-03T16:38:33;22.00;83.80
33699;DHT22;20032;52.436;13.312;2022-09-03T16:41:16;21.90;83.60
33699;DHT22;20032;52.436;13.312;2022-09-03T16:44:08;21.90;84.00
33699;DHT22;20032;52.436;13.312;2022-09-03T16:47:01;21.90;84.40
33699;DHT22;20032;52.436;13.312;2022-09-03T16:49:46;21.80;83.70
33699;DHT22;20032;52.436;13.312;2022-09-03T16:58:08;21.60;84.70
33699;DHT22;20032;52.436;13.312;2022-09-03T17:00:52;21.50;83.80
33699;DHT22;20032;52.436;13.312;2022-09-03T17:03:42;21.50;84.50
33699;DHT22;20032;52.436;13.312;2022-09-03T17:06:34;21.50;84.90
33699;DHT22;20032;52.436;13.312;2022-09-03T17:09:20;21.50;85.40
33699;DHT22;20032;52.436;13.312;2022-09-03T17:12:24;21.50;85.90
33699;DHT22;20032;52.436;13.312;2022-09-03T17:17:54;21.30;86.40
33699;DHT22;20032;52.436;13.312;2022-09-03T17:22:50;21.30;86.60